sensor_id;sensor_type;location;lat;lon;timestamp;P1;durP1;ratioP1;P2;durP2;ratioP2
74473;SDS011;62922;-6.168;106.796;2022-11-30T00:01:43;24.60;;;9.32;;
74473;SDS011;62922;-6.168;106.796;2022-11-30T00:04:10;26.58;;;8.88;;
74473;SDS011;62922;-6.168;106.796;2022-11-30T00:06:40;31.75;;;8.73;;
74473;SDS011;62922;-6.168;106.796;2022-11-30T00:09:06;21.90;;;7.80;;
74473;SDS011;62922;-6.168;106.796;2022-11-30T00:11:33;27.08;;;8.68;;
74473;SDS011;62922;-6.168;106.796;2022-11-30T00:13:59;27.60;;;8.07;;
74473;SDS011;62922;-6.168;106.796;2022-11-30T00:16:25;27.20;;;7.88;;
74473;SDS011;62922;-6.168;106.796;2022-11-30T00:18:52;25.55;;;8.15;;
74473;SDS011;62922;-6.168;106.796;2022-11-30T00:21:18;26.52;;;8.55;;
74473;SDS011;62922;-6.168;106.796;2022-11-30T00:23:45;29.23;;;9.30;;
74473;SDS011;62922;-6.168;106.796;2022-11-30T00:26:13;24.48;;;9.02;;
74473;SDS011;62922;-6.168;106.796;2022-11-30T00:28:40;28.77;;;9.88;;
74473;SDS011;62922;-6.168;106.796;2022-11-30T00:31:10;28.90;;;9.30;;
74473;SDS011;62922;-6.168;106.796;2022-11-30T00:33:37;26.90;;;9.55;;
74473;SDS011;62922;-6.168;106.796;2022-11-30T00:36:06;27.52;;;9.00;;
74473;SDS011;62922;-6.168;106.796;2022-11-30T00:38:35;26.92;;;9.77;;
74473;SDS011;62922;-6.168;106.796;2022-11-30T00:41:03;23.13;;;8.85;;
74473;SDS011;62922;-6.168;106.796;2022-11-30T00:43:30;31.88;;;10.48;;
74473;SDS011;62922;-6.168;106.796;2022-11-30T00:45:56;39.65;;;10.52;;
74473;SDS011;62922;-6.168;106.796;2022-11-30T00:48:23;34.05;;;9.55;;
74473;SDS011;62922;-6.168;106.796;2022-11-30T00:50:50;34.75;;;9.48;;
74473;SDS011;62922;-6.168;106.796;2022-11-30T00:53:17;33.20;;;10.85;;
74473;SDS011;62922;-6.168;106.796;2022-11-30T00:55:46;28.85;;;10.63;;
74473;SDS011;62922;-6.168;106.796;2022-11-30T00:58:13;30.10;;;10.55;;
74473;SDS011;62922;-6.168;106.796;2022-11-30T01:00:42;29.02;;;10.43;;
74473;SDS011;62922;-6.168;106.796;2022-11-30T01:03:11;25.88;;;10.07;;
74473;SDS011;62922;-6.168;106.796;2022-11-30T01:05:38;28.17;;;10.45;;
74473;SDS011;62922;-6.168;106.796;2022-11-30T01:08:06;26.48;;;10.20;;
74473;SDS011;62922;-6.168;106.796;2022-11-30T01:10:34;28.17;;;10.18;;
74473;SDS011;62922;-6.168;106.796;2022-11-30T01:13:02;25.92;;;10.13;;
74473;SDS011;62922;-6.168;106.796;2022-11-30T01:15:29;25.80;;;9.50;;
74473;SDS011;62922;-6.168;106.796;2022-11-30T01:17:57;26.42;;;9.80;;
74473;SDS011;62922;-6.168;106.796;2022-11-30T01:20:24;29.50;;;10.25;;
74473;SDS011;62922;-6.168;106.796;2022-11-30T01:22:50;25.60;;;9.32;;
74473;SDS011;62922;-6.168;106.796;2022-11-30T01:25:17;30.85;;;10.48;;
74473;SDS011;62922;-6.168;106.796;2022-11-30T01:27:45;29.65;;;9.35;;
74473;SDS011;62922;-6.168;106.796;2022-11-30T01:30:14;24.05;;;9.07;;
74473;SDS011;62922;-6.168;106.796;2022-11-30T01:32:40;23.27;;;8.35;;
74473;SDS011;62922;-6.168;106.796;2022-11-30T01:35:06;22.50;;;8.02;;
74473;SDS011;62922;-6.168;106.796;2022-11-30T01:37:33;23.75;;;8.02;;
74473;SDS011;62922;-6.168;106.796;2022-11-30T01:40:02;21.83;;;8.50;;
74473;SDS011;62922;-6.168;106.796;2022-11-30T01:42:29;23.48;;;8.68;;
74473;SDS011;62922;-6.168;106.796;2022-11-30T01:44:58;21.58;;;7.55;;
74473;SDS011;62922;-6.168;106.796;2022-11-30T01:50:00;23.08;;;7.35;;
74473;SDS011;62922;-6.168;106.796;2022-11-30T01:55:05;23.90;;;7.68;;
74473;SDS011;62922;-6.168;106.796;2022-11-30T01:57:35;22.35;;;7.78;;
74473;SDS011;62922;-6.168;106.796;2022-11-30T02:00:06;25.20;;;8.10;;
74473;SDS011;62922;-6.168;106.796;2022-11-30T02:07:35;23.67;;;7.85;;
74473;SDS011;62922;-6.168;106.796;2022-11-30T02:10:01;23.13;;;7.78;;
74473;SDS011;62922;-6.168;106.796;2022-11-30T02:14:57;19.70;;;7.05;;
74473;SDS011;62922;-6.168;106.796;2022-11-30T02:20:20;18.25;;;6.82;;
74473;SDS011;62922;-6.168;106.796;2022-11-30T02:22:58;21.20;;;7.10;;
74473;SDS011;62922;-6.168;106.796;2022-11-30T02:30:31;21.42;;;7.30;;
74473;SDS011;62922;-6.168;106.796;2022-11-30T02:35:41;25.83;;;7.57;;
74473;SDS011;62922;-6.168;106.796;2022-11-30T02:38:12;21.02;;;7.45;;
74473;SDS011;62922;-6.168;106.796;2022-11-30T02:40:39;20.23;;;6.88;;
74473;SDS011;62922;-6.168;106.796;2022-11-30T02:43:06;23.10;;;6.75;;
74473;SDS011;62922;-6.168;106.796;2022-11-30T02:46:10;21.73;;;7.35;;
74473;SDS011;62922;-6.168;106.796;2022-11-30T02:48:27;20.17;;;6.70;;
74473;SDS011;62922;-6.168;106.796;2022-11-30T02:51:10;18.67;;;6.38;;
74473;SDS011;62922;-6.168;106.796;2022-11-30T02:56:08;27.67;;;8.30;;
74473;SDS011;62922;-6.168;106.796;2022-11-30T02:58:35;22.42;;;7.22;;
74473;SDS011;62922;-6.168;106.796;2022-11-30T03:01:01;27.02;;;8.20;;
74473;SDS011;62922;-6.168;106.796;2022-11-30T03:03:36;21.30;;;7.78;;
74473;SDS011;62922;-6.168;106.796;2022-11-30T03:06:03;21.52;;;7.47;;
74473;SDS011;62922;-6.168;106.796;2022-11-30T03:08:29;22.65;;;7.60;;
74473;SDS011;62922;-6.168;106.796;2022-11-30T03:10:55;24.25;;;7.75;;
74473;SDS011;62922;-6.168;106.796;2022-11-30T03:13:25;25.40;;;8.43;;
74473;SDS011;62922;-6.168;106.796;2022-11-30T03:15:52;36.75;;;8.00;;
74473;SDS011;62922;-6.168;106.796;2022-11-30T03:18:18;22.40;;;8.43;;
74473;SDS011;62922;-6.168;106.796;2022-11-30T03:20:44;21.23;;;8.27;;
74473;SDS011;62922;-6.168;106.796;2022-11-30T03:23:10;26.73;;;9.35;;
74473;SDS011;62922;-6.168;106.796;2022-11-30T03:25:37;27.20;;;9.48;;
74473;SDS011;62922;-6.168;106.796;2022-11-30T03:28:03;23.08;;;9.48;;
74473;SDS011;62922;-6.168;106.796;2022-11-30T03:30:32;25.20;;;10.63;;
74473;SDS011;62922;-6.168;106.796;2022-11-30T03:32:58;30.92;;;11.05;;
74473;SDS011;62922;-6.168;106.796;2022-11-30T03:35:27;27.48;;;10.23;;
74473;SDS011;62922;-6.168;106.796;2022-11-30T03:37:56;26.45;;;9.82;;
74473;SDS011;62922;-6.168;106.796;2022-11-30T03:40:22;28.88;;;10.40;;
74473;SDS011;62922;-6.168;106.796;2022-11-30T03:42:48;28.73;;;10.10;;
74473;SDS011;62922;-6.168;106.796;2022-11-30T03:45:15;29.85;;;9.85;;
74473;SDS011;62922;-6.168;106.796;2022-11-30T03:47:42;27.95;;;10.02;;
74473;SDS011;62922;-6.168;106.796;2022-11-30T03:50:08;23.15;;;9.23;;
74473;SDS011;62922;-6.168;106.796;2022-11-30T03:52:35;27.30;;;10.73;;
74473;SDS011;62922;-6.168;106.796;2022-11-30T03:55:04;24.15;;;9.93;;
74473;SDS011;62922;-6.168;106.796;2022-11-30T03:57:31;35.03;;;11.00;;
74473;SDS011;62922;-6.168;106.796;2022-11-30T03:59:57;26.95;;;10.55;;
74473;SDS011;62922;-6.168;106.796;2022-11-30T04:02:24;27.02;;;10.48;;
74473;SDS011;62922;-6.168;106.796;2022-11-30T04:04:50;27.70;;;10.57;;
74473;SDS011;62922;-6.168;106.796;2022-11-30T04:07:16;26.48;;;9.88;;
74473;SDS011;62922;-6.168;106.796;2022-11-30T04:09:43;24.90;;;10.23;;
74473;SDS011;62922;-6.168;106.796;2022-11-30T04:12:09;23.80;;;10.25;;
74473;SDS011;62922;-6.168;106.796;2022-11-30T04:14:35;27.23;;;10.55;;
74473;SDS011;62922;-6.168;106.796;2022-11-30T04:17:01;28.33;;;10.43;;
74473;SDS011;62922;-6.168;106.796;2022-11-30T04:19:28;31.00;;;10.65;;
74473;SDS011;62922;-6.168;106.796;2022-11-30T04:21:54;31.33;;;10.27;;
74473;SDS011;62922;-6.168;106.796;2022-11-30T04:24:20;26.00;;;10.40;;
74473;SDS011;62922;-6.168;106.796;2022-11-30T04:26:49;27.45;;;10.50;;
74473;SDS011;62922;-6.168;106.796;2022-11-30T04:29:15;26.67;;;9.88;;
74473;SDS011;62922;-6.168;106.796;2022-11-30T04:31:42;30.50;;;9.85;;
74473;SDS011;62922;-6.168;106.796;2022-11-30T04:34:08;33.22;;;10.43;;
74473;SDS011;62922;-6.168;106.796;2022-11-30T04:36:34;27.17;;;10.45;;
74473;SDS011;62922;-6.168;106.796;2022-11-30T04:39:01;25.13;;;9.68;;
74473;SDS011;62922;-6.168;106.796;2022-11-30T04:41:27;29.50;;;10.65;;
74473;SDS011;62922;-6.168;106.796;2022-11-30T04:43:56;28.92;;;10.43;;
74473;SDS011;62922;-6.168;106.796;2022-11-30T04:46:22;30.40;;;10.80;;
74473;SDS011;62922;-6.168;106.796;2022-11-30T04:48:48;28.52;;;10.50;;
74473;SDS011;62922;-6.168;106.796;2022-11-30T04:51:17;29.48;;;10.45;;
74473;SDS011;62922;-6.168;106.796;2022-11-30T04:53:46;29.42;;;10.80;;
74473;SDS011;62922;-6.168;106.796;2022-11-30T04:56:12;26.85;;;10.55;;
74473;SDS011;62922;-6.168;106.796;2022-11-30T04:58:41;28.20;;;9.52;;
74473;SDS011;62922;-6.168;106.796;2022-11-30T05:01:07;31.23;;;10.38;;
74473;SDS011;62922;-6.168;106.796;2022-11-30T05:03:34;26.08;;;9.82;;
74473;SDS011;62922;-6.168;106.796;2022-11-30T05:06:01;25.75;;;10.32;;
74473;SDS011;62922;-6.168;106.796;2022-11-30T05:08:30;29.25;;;10.43;;
74473;SDS011;62922;-6.168;106.796;2022-11-30T05:10:57;27.10;;;10.25;;
74473;SDS011;62922;-6.168;106.796;2022-11-30T05:13:23;32.90;;;10.80;;
74473;SDS011;62922;-6.168;106.796;2022-11-30T05:15:51;26.83;;;10.95;;
74473;SDS011;62922;-6.168;106.796;2022-11-30T05:18:18;31.80;;;11.77;;
74473;SDS011;62922;-6.168;106.796;2022-11-30T05:20:46;29.88;;;10.38;;
74473;SDS011;62922;-6.168;106.796;2022-11-30T05:23:14;32.05;;;11.27;;
74473;SDS011;62922;-6.168;106.796;2022-11-30T05:25:41;27.83;;;10.82;;
74473;SDS011;62922;-6.168;106.796;2022-11-30T05:28:10;28.42;;;11.02;;
74473;SDS011;62922;-6.168;106.796;2022-11-30T05:30:39;33.38;;;12.00;;
74473;SDS011;62922;-6.168;106.796;2022-11-30T05:33:06;28.73;;;11.38;;
74473;SDS011;62922;-6.168;106.796;2022-11-30T05:35:35;36.88;;;13.07;;
74473;SDS011;62922;-6.168;106.796;2022-11-30T05:38:04;30.02;;;12.98;;
74473;SDS011;62922;-6.168;106.796;2022-11-30T05:40:30;35.50;;;14.27;;
74473;SDS011;62922;-6.168;106.796;2022-11-30T05:42:58;34.40;;;15.80;;
74473;SDS011;62922;-6.168;106.796;2022-11-30T05:45:26;37.35;;;15.63;;
74473;SDS011;62922;-6.168;106.796;2022-11-30T05:47:52;34.63;;;15.38;;
74473;SDS011;62922;-6.168;106.796;2022-11-30T05:50:19;39.58;;;16.85;;
74473;SDS011;62922;-6.168;106.796;2022-11-30T05:52:48;42.50;;;16.52;;
74473;SDS011;62922;-6.168;106.796;2022-11-30T05:55:21;34.53;;;15.38;;
74473;SDS011;62922;-6.168;106.796;2022-11-30T06:00:17;29.60;;;14.02;;
74473;SDS011;62922;-6.168;106.796;2022-11-30T06:02:44;30.83;;;13.38;;
74473;SDS011;62922;-6.168;106.796;2022-11-30T06:05:11;33.72;;;14.00;;
74473;SDS011;62922;-6.168;106.796;2022-11-30T06:07:38;37.10;;;13.20;;
74473;SDS011;62922;-6.168;106.796;2022-11-30T06:10:05;29.30;;;12.25;;
74473;SDS011;62922;-6.168;106.796;2022-11-30T06:12:34;29.92;;;12.48;;
74473;SDS011;62922;-6.168;106.796;2022-11-30T06:15:01;28.40;;;11.70;;
74473;SDS011;62922;-6.168;106.796;2022-11-30T06:17:27;34.83;;;12.65;;
74473;SDS011;62922;-6.168;106.796;2022-11-30T06:19:56;24.60;;;11.13;;
74473;SDS011;62922;-6.168;106.796;2022-11-30T06:22:24;29.48;;;11.98;;
74473;SDS011;62922;-6.168;106.796;2022-11-30T06:24:56;27.05;;;11.13;;
74473;SDS011;62922;-6.168;106.796;2022-11-30T06:27:22;27.55;;;10.95;;
74473;SDS011;62922;-6.168;106.796;2022-11-30T06:29:51;27.63;;;10.93;;
74473;SDS011;62922;-6.168;106.796;2022-11-30T06:32:17;31.27;;;11.75;;
74473;SDS011;62922;-6.168;106.796;2022-11-30T06:34:44;29.27;;;12.05;;
74473;SDS011;62922;-6.168;106.796;2022-11-30T06:37:10;27.25;;;11.93;;
74473;SDS011;62922;-6.168;106.796;2022-11-30T06:39:37;25.95;;;11.18;;
74473;SDS011;62922;-6.168;106.796;2022-11-30T06:42:03;27.48;;;11.77;;
74473;SDS011;62922;-6.168;106.796;2022-11-30T06:44:30;31.42;;;11.90;;
74473;SDS011;62922;-6.168;106.796;2022-11-30T06:46:56;27.33;;;11.57;;
74473;SDS011;62922;-6.168;106.796;2022-11-30T06:49:23;27.95;;;12.63;;
74473;SDS011;62922;-6.168;106.796;2022-11-30T06:51:49;31.58;;;13.52;;
74473;SDS011;62922;-6.168;106.796;2022-11-30T06:54:15;34.00;;;13.38;;
74473;SDS011;62922;-6.168;106.796;2022-11-30T06:56:42;29.67;;;12.57;;
74473;SDS011;62922;-6.168;106.796;2022-11-30T06:59:08;33.10;;;13.02;;
74473;SDS011;62922;-6.168;106.796;2022-11-30T07:01:34;33.20;;;13.82;;
74473;SDS011;62922;-6.168;106.796;2022-11-30T07:04:01;29.55;;;13.63;;
74473;SDS011;62922;-6.168;106.796;2022-11-30T07:06:27;26.73;;;12.82;;
74473;SDS011;62922;-6.168;106.796;2022-11-30T07:08:53;34.13;;;14.75;;
74473;SDS011;62922;-6.168;106.796;2022-11-30T07:11:20;34.15;;;14.93;;
74473;SDS011;62922;-6.168;106.796;2022-11-30T07:13:46;30.60;;;14.30;;
74473;SDS011;62922;-6.168;106.796;2022-11-30T07:16:12;30.92;;;13.52;;
74473;SDS011;62922;-6.168;106.796;2022-11-30T07:18:39;38.17;;;14.60;;
74473;SDS011;62922;-6.168;106.796;2022-11-30T07:21:05;41.65;;;14.57;;
74473;SDS011;62922;-6.168;106.796;2022-11-30T07:23:32;53.33;;;15.32;;
74473;SDS011;62922;-6.168;106.796;2022-11-30T07:26:01;50.67;;;14.98;;
74473;SDS011;62922;-6.168;106.796;2022-11-30T07:28:35;49.60;;;14.68;;
74473;SDS011;62922;-6.168;106.796;2022-11-30T07:33:37;41.80;;;14.48;;
74473;SDS011;62922;-6.168;106.796;2022-11-30T07:36:04;48.25;;;14.57;;
74473;SDS011;62922;-6.168;106.796;2022-11-30T07:38:30;43.42;;;13.60;;
74473;SDS011;62922;-6.168;106.796;2022-11-30T07:40:59;45.35;;;14.57;;
74473;SDS011;62922;-6.168;106.796;2022-11-30T07:43:26;46.90;;;13.75;;
74473;SDS011;62922;-6.168;106.796;2022-11-30T07:45:55;42.80;;;13.70;;
74473;SDS011;62922;-6.168;106.796;2022-11-30T07:48:22;40.00;;;12.52;;
74473;SDS011;62922;-6.168;106.796;2022-11-30T07:50:48;37.58;;;13.75;;
74473;SDS011;62922;-6.168;106.796;2022-11-30T07:53:15;36.85;;;13.85;;
74473;SDS011;62922;-6.168;106.796;2022-11-30T07:55:47;35.47;;;12.05;;
74473;SDS011;62922;-6.168;106.796;2022-11-30T07:58:13;33.70;;;12.60;;
74473;SDS011;62922;-6.168;106.796;2022-11-30T08:00:42;34.45;;;12.43;;
74473;SDS011;62922;-6.168;106.796;2022-11-30T08:03:08;36.20;;;12.18;;
74473;SDS011;62922;-6.168;106.796;2022-11-30T08:05:35;47.42;;;12.52;;
74473;SDS011;62922;-6.168;106.796;2022-11-30T08:08:01;43.65;;;12.20;;
74473;SDS011;62922;-6.168;106.796;2022-11-30T08:10:27;38.15;;;11.13;;
74473;SDS011;62922;-6.168;106.796;2022-11-30T08:12:53;54.88;;;13.27;;
74473;SDS011;62922;-6.168;106.796;2022-11-30T08:15:20;46.05;;;13.50;;
74473;SDS011;62922;-6.168;106.796;2022-11-30T08:17:46;61.88;;;14.48;;
74473;SDS011;62922;-6.168;106.796;2022-11-30T08:20:16;50.60;;;12.45;;
74473;SDS011;62922;-6.168;106.796;2022-11-30T08:22:45;44.67;;;13.75;;
74473;SDS011;62922;-6.168;106.796;2022-11-30T08:25:11;44.97;;;11.90;;
74473;SDS011;62922;-6.168;106.796;2022-11-30T08:27:38;42.65;;;12.20;;
74473;SDS011;62922;-6.168;106.796;2022-11-30T08:30:04;39.92;;;11.93;;
74473;SDS011;62922;-6.168;106.796;2022-11-30T08:32:34;52.45;;;13.00;;
74473;SDS011;62922;-6.168;106.796;2022-11-30T08:35:00;37.15;;;11.93;;
74473;SDS011;62922;-6.168;106.796;2022-11-30T08:37:26;33.60;;;11.18;;
74473;SDS011;62922;-6.168;106.796;2022-11-30T08:39:53;31.30;;;10.40;;
74473;SDS011;62922;-6.168;106.796;2022-11-30T08:42:19;32.28;;;11.27;;
74473;SDS011;62922;-6.168;106.796;2022-11-30T08:44:45;30.77;;;10.32;;
74473;SDS011;62922;-6.168;106.796;2022-11-30T08:47:12;34.25;;;10.48;;
74473;SDS011;62922;-6.168;106.796;2022-11-30T08:49:38;32.67;;;10.68;;
74473;SDS011;62922;-6.168;106.796;2022-11-30T08:52:07;33.40;;;10.55;;
74473;SDS011;62922;-6.168;106.796;2022-11-30T08:54:33;38.58;;;10.80;;
74473;SDS011;62922;-6.168;106.796;2022-11-30T08:57:00;24.25;;;9.63;;
74473;SDS011;62922;-6.168;106.796;2022-11-30T08:59:26;43.55;;;11.13;;
74473;SDS011;62922;-6.168;106.796;2022-11-30T09:01:55;35.45;;;10.43;;
74473;SDS011;62922;-6.168;106.796;2022-11-30T09:04:21;32.22;;;10.02;;
74473;SDS011;62922;-6.168;106.796;2022-11-30T09:06:47;29.02;;;10.18;;
74473;SDS011;62922;-6.168;106.796;2022-11-30T09:09:14;31.88;;;10.20;;
74473;SDS011;62922;-6.168;106.796;2022-11-30T09:11:43;25.05;;;8.98;;
74473;SDS011;62922;-6.168;106.796;2022-11-30T09:14:09;25.65;;;8.95;;
74473;SDS011;62922;-6.168;106.796;2022-11-30T09:16:35;26.27;;;9.95;;
74473;SDS011;62922;-6.168;106.796;2022-11-30T09:19:02;27.33;;;9.55;;
74473;SDS011;62922;-6.168;106.796;2022-11-30T09:21:29;26.05;;;8.88;;
74473;SDS011;62922;-6.168;106.796;2022-11-30T09:23:55;25.35;;;9.00;;
74473;SDS011;62922;-6.168;106.796;2022-11-30T09:26:21;23.98;;;8.50;;
74473;SDS011;62922;-6.168;106.796;2022-11-30T09:28:50;23.65;;;8.45;;
74473;SDS011;62922;-6.168;106.796;2022-11-30T09:31:20;24.75;;;8.45;;
74473;SDS011;62922;-6.168;106.796;2022-11-30T09:33:52;31.77;;;9.52;;
74473;SDS011;62922;-6.168;106.796;2022-11-30T09:36:21;24.10;;;8.27;;
74473;SDS011;62922;-6.168;106.796;2022-11-30T09:38:51;26.75;;;8.95;;
74473;SDS011;62922;-6.168;106.796;2022-11-30T09:43:55;29.23;;;8.60;;
74473;SDS011;62922;-6.168;106.796;2022-11-30T09:46:29;22.50;;;8.10;;
74473;SDS011;62922;-6.168;106.796;2022-11-30T09:49:03;29.55;;;8.65;;
74473;SDS011;62922;-6.168;106.796;2022-11-30T09:51:54;23.17;;;8.45;;
74473;SDS011;62922;-6.168;106.796;2022-11-30T09:54:27;37.05;;;9.55;;
74473;SDS011;62922;-6.168;106.796;2022-11-30T09:57:04;24.83;;;8.20;;
74473;SDS011;62922;-6.168;106.796;2022-11-30T09:59:38;25.13;;;8.63;;
74473;SDS011;62922;-6.168;106.796;2022-11-30T10:02:14;25.23;;;9.18;;
74473;SDS011;62922;-6.168;106.796;2022-11-30T10:04:46;25.83;;;8.75;;
74473;SDS011;62922;-6.168;106.796;2022-11-30T10:15:13;27.35;;;9.20;;
74473;SDS011;62922;-6.168;106.796;2022-11-30T10:32:48;24.98;;;9.98;;
74473;SDS011;62922;-6.168;106.796;2022-11-30T10:37:46;21.98;;;9.10;;
74473;SDS011;62922;-6.168;106.796;2022-11-30T10:40:22;21.63;;;9.40;;
74473;SDS011;62922;-6.168;106.796;2022-11-30T10:42:58;25.90;;;9.32;;
74473;SDS011;62922;-6.168;106.796;2022-11-30T10:45:41;22.60;;;8.68;;
74473;SDS011;62922;-6.168;106.796;2022-11-30T10:48:14;23.33;;;8.80;;
74473;SDS011;62922;-6.168;106.796;2022-11-30T10:50:45;20.65;;;8.10;;
74473;SDS011;62922;-6.168;106.796;2022-11-30T10:53:12;23.83;;;8.52;;
74473;SDS011;62922;-6.168;106.796;2022-11-30T10:55:40;19.48;;;7.70;;
74473;SDS011;62922;-6.168;106.796;2022-11-30T11:00:49;19.60;;;7.95;;
74473;SDS011;62922;-6.168;106.796;2022-11-30T11:03:24;16.92;;;7.47;;
74473;SDS011;62922;-6.168;106.796;2022-11-30T11:08:24;23.23;;;7.10;;
74473;SDS011;62922;-6.168;106.796;2022-11-30T11:10:51;16.88;;;7.30;;
74473;SDS011;62922;-6.168;106.796;2022-11-30T11:13:20;20.98;;;7.50;;
74473;SDS011;62922;-6.168;106.796;2022-11-30T11:18:27;23.88;;;8.13;;
74473;SDS011;62922;-6.168;106.796;2022-11-30T11:20:59;35.20;;;9.80;;
74473;SDS011;62922;-6.168;106.796;2022-11-30T11:25:57;24.25;;;9.25;;
74473;SDS011;62922;-6.168;106.796;2022-11-30T11:28:23;24.50;;;8.93;;
74473;SDS011;62922;-6.168;106.796;2022-11-30T11:30:53;24.15;;;9.48;;
74473;SDS011;62922;-6.168;106.796;2022-11-30T11:33:24;23.40;;;9.15;;
74473;SDS011;62922;-6.168;106.796;2022-11-30T11:35:53;24.15;;;9.25;;
74473;SDS011;62922;-6.168;106.796;2022-11-30T11:43:32;20.25;;;8.55;;
74473;SDS011;62922;-6.168;106.796;2022-11-30T11:46:14;19.73;;;8.43;;
74473;SDS011;62922;-6.168;106.796;2022-11-30T11:48:45;26.05;;;9.30;;
74473;SDS011;62922;-6.168;106.796;2022-11-30T11:54:17;23.38;;;9.43;;
74473;SDS011;62922;-6.168;106.796;2022-11-30T11:57:02;26.13;;;9.40;;
74473;SDS011;62922;-6.168;106.796;2022-11-30T11:59:36;21.17;;;9.07;;
74473;SDS011;62922;-6.168;106.796;2022-11-30T12:12:30;39.75;;;17.00;;
74473;SDS011;62922;-6.168;106.796;2022-11-30T12:14:57;137.20;;;77.35;;
74473;SDS011;62922;-6.168;106.796;2022-11-30T12:20:22;156.77;;;86.32;;
74473;SDS011;62922;-6.168;106.796;2022-11-30T12:28:41;99.47;;;51.03;;
74473;SDS011;62922;-6.168;106.796;2022-11-30T12:34:31;73.80;;;38.33;;
74473;SDS011;62922;-6.168;106.796;2022-11-30T12:37:04;63.42;;;34.90;;
74473;SDS011;62922;-6.168;106.796;2022-11-30T12:39:41;65.65;;;31.98;;
74473;SDS011;62922;-6.168;106.796;2022-11-30T12:42:19;47.65;;;27.05;;
74473;SDS011;62922;-6.168;106.796;2022-11-30T12:53:20;44.78;;;20.13;;
74473;SDS011;62922;-6.168;106.796;2022-11-30T13:06:11;38.80;;;17.20;;
74473;SDS011;62922;-6.168;106.796;2022-11-30T13:08:43;34.38;;;17.15;;
74473;SDS011;62922;-6.168;106.796;2022-11-30T13:11:21;38.80;;;18.73;;
74473;SDS011;62922;-6.168;106.796;2022-11-30T13:13:57;45.35;;;18.58;;
74473;SDS011;62922;-6.168;106.796;2022-11-30T13:16:27;33.58;;;18.35;;
74473;SDS011;62922;-6.168;106.796;2022-11-30T13:18:58;38.70;;;17.40;;
74473;SDS011;62922;-6.168;106.796;2022-11-30T13:21:36;34.75;;;16.35;;
74473;SDS011;62922;-6.168;106.796;2022-11-30T13:24:12;38.08;;;17.00;;
74473;SDS011;62922;-6.168;106.796;2022-11-30T13:32:11;32.67;;;14.77;;
74473;SDS011;62922;-6.168;106.796;2022-11-30T13:34:40;36.03;;;15.15;;
74473;SDS011;62922;-6.168;106.796;2022-11-30T13:47:37;33.58;;;15.10;;
74473;SDS011;62922;-6.168;106.796;2022-11-30T13:50:08;34.67;;;14.57;;
74473;SDS011;62922;-6.168;106.796;2022-11-30T13:58:14;47.08;;;16.08;;
74473;SDS011;62922;-6.168;106.796;2022-11-30T14:00:43;33.60;;;14.27;;
74473;SDS011;62922;-6.168;106.796;2022-11-30T14:10:50;27.88;;;14.35;;
74473;SDS011;62922;-6.168;106.796;2022-11-30T14:26:09;35.65;;;14.32;;
74473;SDS011;62922;-6.168;106.796;2022-11-30T14:31:25;29.52;;;13.60;;
74473;SDS011;62922;-6.168;106.796;2022-11-30T14:33:55;33.80;;;13.55;;
74473;SDS011;62922;-6.168;106.796;2022-11-30T14:36:31;25.55;;;13.45;;
74473;SDS011;62922;-6.168;106.796;2022-11-30T14:39:00;26.38;;;13.38;;
74473;SDS011;62922;-6.168;106.796;2022-11-30T14:41:27;25.92;;;13.90;;
74473;SDS011;62922;-6.168;106.796;2022-11-30T14:46:25;23.13;;;13.90;;
74473;SDS011;62922;-6.168;106.796;2022-11-30T14:51:41;28.77;;;14.38;;
74473;SDS011;62922;-6.168;106.796;2022-11-30T14:57:21;31.85;;;15.10;;
74473;SDS011;62922;-6.168;106.796;2022-11-30T14:59:50;28.58;;;16.02;;
74473;SDS011;62922;-6.168;106.796;2022-11-30T15:02:43;26.58;;;14.00;;
74473;SDS011;62922;-6.168;106.796;2022-11-30T15:05:11;26.15;;;15.15;;
74473;SDS011;62922;-6.168;106.796;2022-11-30T15:07:41;31.00;;;15.93;;
74473;SDS011;62922;-6.168;106.796;2022-11-30T15:10:13;27.23;;;16.15;;
74473;SDS011;62922;-6.168;106.796;2022-11-30T15:12:43;32.42;;;16.50;;
74473;SDS011;62922;-6.168;106.796;2022-11-30T15:17:44;27.40;;;16.83;;
74473;SDS011;62922;-6.168;106.796;2022-11-30T15:23:11;31.77;;;17.63;;
74473;SDS011;62922;-6.168;106.796;2022-11-30T15:25:43;28.20;;;17.02;;
74473;SDS011;62922;-6.168;106.796;2022-11-30T15:28:17;30.67;;;17.80;;
74473;SDS011;62922;-6.168;106.796;2022-11-30T15:30:47;28.95;;;17.52;;
74473;SDS011;62922;-6.168;106.796;2022-11-30T15:33:21;30.27;;;18.35;;
74473;SDS011;62922;-6.168;106.796;2022-11-30T15:35:50;31.75;;;17.83;;
74473;SDS011;62922;-6.168;106.796;2022-11-30T15:38:20;31.25;;;18.63;;
74473;SDS011;62922;-6.168;106.796;2022-11-30T15:40:50;34.45;;;19.00;;
74473;SDS011;62922;-6.168;106.796;2022-11-30T15:43:19;31.38;;;19.27;;
74473;SDS011;62922;-6.168;106.796;2022-11-30T15:45:57;34.10;;;20.67;;
74473;SDS011;62922;-6.168;106.796;2022-11-30T15:48:28;32.45;;;21.67;;
74473;SDS011;62922;-6.168;106.796;2022-11-30T15:50:58;34.05;;;22.27;;
74473;SDS011;62922;-6.168;106.796;2022-11-30T15:55:54;36.20;;;26.00;;
74473;SDS011;62922;-6.168;106.796;2022-11-30T16:00:58;41.35;;;25.83;;
74473;SDS011;62922;-6.168;106.796;2022-11-30T16:03:30;34.55;;;23.90;;
74473;SDS011;62922;-6.168;106.796;2022-11-30T16:05:58;40.08;;;26.52;;
74473;SDS011;62922;-6.168;106.796;2022-11-30T16:08:29;42.83;;;26.10;;
74473;SDS011;62922;-6.168;106.796;2022-11-30T16:10:56;41.50;;;27.60;;
74473;SDS011;62922;-6.168;106.796;2022-11-30T16:13:29;38.38;;;26.98;;
74473;SDS011;62922;-6.168;106.796;2022-11-30T16:15:58;41.63;;;27.85;;
74473;SDS011;62922;-6.168;106.796;2022-11-30T16:18:26;38.90;;;25.63;;
74473;SDS011;62922;-6.168;106.796;2022-11-30T16:20:54;46.25;;;28.60;;
74473;SDS011;62922;-6.168;106.796;2022-11-30T16:23:22;43.10;;;27.90;;
74473;SDS011;62922;-6.168;106.796;2022-11-30T16:25:50;39.05;;;26.77;;
74473;SDS011;62922;-6.168;106.796;2022-11-30T16:28:16;43.88;;;28.10;;
74473;SDS011;62922;-6.168;106.796;2022-11-30T16:30:44;40.35;;;27.73;;
74473;SDS011;62922;-6.168;106.796;2022-11-30T16:33:19;44.63;;;28.65;;
74473;SDS011;62922;-6.168;106.796;2022-11-30T16:38:26;40.15;;;29.63;;
74473;SDS011;62922;-6.168;106.796;2022-11-30T16:40:57;38.33;;;27.98;;
74473;SDS011;62922;-6.168;106.796;2022-11-30T16:43:44;44.08;;;29.35;;
74473;SDS011;62922;-6.168;106.796;2022-11-30T16:46:15;41.17;;;28.83;;
74473;SDS011;62922;-6.168;106.796;2022-11-30T16:48:44;44.45;;;29.50;;
74473;SDS011;62922;-6.168;106.796;2022-11-30T16:51:11;39.53;;;28.30;;
74473;SDS011;62922;-6.168;106.796;2022-11-30T16:53:39;43.75;;;28.35;;
74473;SDS011;62922;-6.168;106.796;2022-11-30T16:56:08;40.20;;;29.05;;
74473;SDS011;62922;-6.168;106.796;2022-11-30T16:58:43;42.35;;;29.92;;
74473;SDS011;62922;-6.168;106.796;2022-11-30T17:01:19;41.08;;;28.92;;
74473;SDS011;62922;-6.168;106.796;2022-11-30T17:04:13;42.92;;;28.08;;
74473;SDS011;62922;-6.168;106.796;2022-11-30T17:06:43;47.50;;;30.65;;
74473;SDS011;62922;-6.168;106.796;2022-11-30T17:09:10;43.33;;;28.67;;
74473;SDS011;62922;-6.168;106.796;2022-11-30T17:11:38;40.05;;;28.90;;
74473;SDS011;62922;-6.168;106.796;2022-11-30T17:14:05;40.38;;;29.23;;
74473;SDS011;62922;-6.168;106.796;2022-11-30T17:16:32;44.55;;;30.48;;